Time;durP1;ratioP1;P1;durP2;ratioP2;P2;SDS_P1;SDS_P2;PMS_P1;PMS_P2;Temp;Humidity;BMP_temperature;BMP_pressure;BME280_temperature;BME280_humidity;BME280_pressure;Samples;Min_cycle;Max_cycle;Signal;HPM_P1;HPM_P2
2022/06/22 00:00:29;;;;;;;2.30;2.20;;;21.70;68.10;;;22.35;nan;100063.63;4970004;28;20665;-65
2022/06/22 00:02:57;;;;;;;2.50;2.40;;;21.60;68.10;;;22.31;nan;100068.53;4970967;28;20641;-65
2022/06/22 00:05:47;;;;;;;2.40;2.30;;;21.60;68.00;;;22.39;nan;100075.50;4969930;28;20635;-66
2022/06/22 00:08:31;;;;;;;2.80;2.13;;;21.60;68.10;;;22.37;nan;100078.38;4971497;28;20627;-65
2022/06/22 00:11:07;;;;;;;2.43;2.23;;;21.70;67.70;;;22.32;nan;100079.97;4973524;28;20655;-65
2022/06/22 00:13:34;;;;;;;2.37;2.27;;;21.60;67.80;;;22.31;nan;100084.47;4988067;28;20686;-67
2022/06/22 00:16:06;;;;;;;2.10;2.00;;;21.60;67.80;;;22.34;nan;100084.06;4970885;28;20654;-65
2022/06/22 00:18:48;;;;;;;2.63;2.43;;;21.60;67.60;;;22.38;nan;100079.19;4967079;28;20634;-66
2022/06/22 00:21:23;;;;;;;3.10;2.20;;;21.60;67.70;;;22.33;nan;100066.50;4985676;28;20666;-65
2022/06/22 00:23:55;;;;;;;5.00;2.63;;;21.60;67.60;;;22.39;nan;100064.88;4972662;28;20623;-66
2022/06/22 00:26:25;;;;;;;2.33;2.13;;;21.70;67.20;;;22.41;nan;100049.53;4970606;28;21249;-65
2022/06/22 00:29:03;;;;;;;2.43;2.20;;;21.70;67.20;;;22.32;nan;100054.22;4972170;28;20642;-65
2022/06/22 00:32:27;;;;;;;2.30;2.20;;;21.60;67.30;;;22.28;nan;100054.81;4972210;28;20784;-65
2022/06/22 00:34:55;;;;;;;2.67;2.50;;;21.60;67.40;;;22.26;nan;100049.69;4956113;28;20687;-66
2022/06/22 00:37:30;;;;;;;2.60;2.40;;;21.50;67.70;;;22.22;nan;100052.94;4972889;28;20615;-65
2022/06/22 00:40:15;;;;;;;3.77;2.37;;;21.50;67.90;;;22.16;nan;100040.47;4967452;28;20664;-65
2022/06/22 00:42:48;;;;;;;2.97;2.60;;;21.40;68.00;;;22.09;nan;100036.94;4968874;28;21180;-67
2022/06/22 00:45:28;;;;;;;2.53;2.40;;;21.30;68.40;;;22.06;nan;100029.41;4966218;28;20674;-65
2022/06/22 00:47:57;;;;;;;2.63;2.43;;;21.30;68.60;;;22.09;nan;100026.31;4966770;28;20635;-65
2022/06/22 00:50:41;;;;;;;2.67;2.47;;;21.30;68.50;;;22.09;nan;100021.00;4969588;28;21281;-67
2022/06/22 00:53:27;;;;;;;2.87;2.40;;;21.30;68.60;;;22.07;nan;100013.25;4971671;28;21163;-65
2022/06/22 00:56:41;;;;;;;3.93;2.53;;;21.30;69.30;;;22.03;nan;100016.50;4971865;28;20615;-66
2022/06/22 00:59:26;;;;;;;2.90;2.70;;;21.30;69.00;;;22.01;nan;100010.56;4967963;28;20828;-65
2022/06/22 01:02:31;;;;;;;2.53;2.33;;;21.20;69.60;;;21.94;nan;100001.75;4971670;28;20666;-66
2022/06/22 01:05:11;;;;;;;2.80;2.70;;;21.20;69.50;;;21.89;nan;100009.50;4968563;28;20635;-65
2022/06/22 01:07:55;;;;;;;2.30;2.10;;;21.10;69.60;;;21.86;nan;100017.84;4971779;28;20634;-65
2022/06/22 01:10:49;;;;;;;2.50;2.40;;;21.20;69.60;;;21.77;nan;100021.66;4971358;28;20662;-65
2022/06/22 01:13:57;;;;;;;2.50;2.30;;;21.10;69.80;;;21.76;nan;100012.06;4971121;28;20666;-65
2022/06/22 01:16:31;;;;;;;2.50;2.40;;;21.00;70.10;;;21.71;nan;100011.81;4969862;28;20700;-65
2022/06/22 01:19:25;;;;;;;3.67;2.13;;;21.00;70.10;;;21.70;nan;100010.22;4970109;28;20685;-65
2022/06/22 01:22:33;;;;;;;2.20;2.10;;;21.00;70.00;;;21.75;nan;100016.56;4971999;28;20647;-65
2022/06/22 01:25:37;;;;;;;4.20;1.80;;;21.00;70.00;;;21.69;nan;100022.66;4970805;28;20644;-65
2022/06/22 01:28:05;;;;;;;2.47;2.37;;;21.00;70.30;;;21.69;nan;100016.50;4971710;28;21005;-65
2022/06/22 01:30:43;;;;;;;2.53;2.13;;;21.00;70.40;;;21.69;nan;100019.16;4970466;28;21015;-63
2022/06/22 01:33:33;;;;;;;2.20;2.10;;;21.00;70.40;;;21.67;nan;100011.41;4959894;28;20631;-65
2022/06/22 01:36:14;;;;;;;3.07;2.80;;;20.90;70.20;;;21.62;nan;100017.31;4968331;28;20634;-65
2022/06/22 01:38:42;;;;;;;3.33;2.30;;;20.90;70.50;;;21.69;nan;100016.50;4969043;28;20631;-66
2022/06/22 01:41:52;;;;;;;2.33;2.13;;;21.00;70.20;;;21.74;nan;100019.41;4965615;28;20734;-65
2022/06/22 01:44:37;;;;;;;2.20;2.03;;;21.00;70.20;;;21.68;nan;100026.31;4952645;28;20962;-66
2022/06/22 01:47:13;;;;;;;2.23;2.13;;;20.90;70.50;;;21.61;nan;100015.66;4969934;28;20647;-65
2022/06/22 01:50:08;;;;;;;2.00;1.73;;;20.90;70.50;;;21.64;nan;100014.44;4970780;28;20637;-67
2022/06/22 01:52:46;;;;;;;2.50;2.30;;;20.90;70.70;;;21.63;nan;100021.63;4970613;28;20642;-66
2022/06/22 01:55:36;;;;;;;2.00;1.90;;;20.90;70.80;;;21.68;nan;100028.16;4955337;28;20655;-66
2022/06/22 01:58:21;;;;;;;4.00;2.20;;;21.00;70.60;;;21.68;nan;100015.69;4967452;28;21187;-66
2022/06/22 02:01:02;;;;;;;7.80;2.03;;;21.00;70.60;;;21.78;nan;100024.13;4967668;28;20666;-66
2022/06/22 02:03:37;;;;;;;2.10;2.00;;;21.00;70.40;;;21.74;nan;100030.03;4969624;28;20693;-66
2022/06/22 02:09:18;;;;;;;2.37;2.27;;;20.90;70.60;;;21.64;nan;100022.41;4970683;28;21067;-65
2022/06/22 02:12:18;;;;;;;2.80;2.50;;;20.90;70.80;;;21.60;nan;100027.31;4965876;28;20667;-66
2022/06/22 02:14:52;;;;;;;3.67;2.63;;;20.80;70.90;;;21.56;nan;100020.75;4966668;28;21039;-66
2022/06/22 02:17:24;;;;;;;2.60;2.40;;;20.80;71.20;;;21.56;nan;100012.78;4969504;28;21171;-65
2022/06/22 02:20:19;;;;;;;2.47;2.27;;;20.80;71.20;;;21.53;nan;100010.50;4970599;28;20626;-66
2022/06/22 02:22:51;;;;;;;2.70;2.50;;;20.80;71.40;;;21.44;nan;100001.09;4971621;28;20642;-65
2022/06/22 02:25:20;;;;;;;2.47;2.37;;;20.70;71.70;;;21.40;nan;100002.47;4970583;28;20997;-66
2022/06/22 02:27:47;;;;;;;2.50;2.30;;;20.60;71.70;;;21.36;nan;100003.88;4970272;28;20706;-65
2022/06/22 02:30:14;;;;;;;2.27;2.17;;;20.60;72.00;;;21.32;nan;99996.47;4969312;28;20660;-65
2022/06/22 02:32:44;;;;;;;2.33;2.23;;;20.50;72.00;;;21.33;nan;99996.31;4970166;28;20634;-66
2022/06/22 02:35:14;;;;;;;2.60;2.40;;;20.60;72.20;;;21.38;nan;99996.53;4951005;29;20668;-65
2022/06/22 02:37:46;;;;;;;2.27;2.10;;;20.60;72.00;;;21.33;nan;99990.19;4953342;28;20743;-67
2022/06/22 02:40:28;;;;;;;3.00;2.30;;;20.60;72.10;;;21.34;nan;99991.81;4969828;28;20663;-65
2022/06/22 02:45:44;;;;;;;2.30;2.20;;;20.60;72.50;;;21.30;nan;99982.59;4967544;28;20639;-65
2022/06/22 02:48:26;;;;;;;2.60;2.40;;;20.60;72.10;;;21.22;nan;99986.22;4963695;28;20632;-66
2022/06/22 02:51:31;;;;;;;2.33;2.10;;;20.60;72.30;;;21.24;nan;99981.56;4968818;28;20662;-66
2022/06/22 02:54:04;;;;;;;2.83;2.63;;;20.50;72.30;;;21.27;nan;99983.00;4969794;28;20674;-65
2022/06/22 02:56:39;;;;;;;2.70;2.40;;;20.60;72.40;;;21.15;nan;99992.50;4970530;28;20639;-66
2022/06/22 02:59:09;;;;;;;2.57;2.47;;;20.50;72.70;;;21.11;nan;99983.28;4970600;28;20614;-66
2022/06/22 03:01:39;;;;;;;2.20;2.10;;;20.40;73.30;;;21.08;nan;99986.34;4969798;28;20659;-65
2022/06/22 03:04:14;;;;;;;2.13;2.03;;;20.30;73.60;;;21.00;nan;99987.25;4968729;28;20662;-66
2022/06/22 03:06:48;;;;;;;2.33;2.23;;;20.30;73.80;;;21.01;nan;99988.91;4969476;28;20677;-66
2022/06/22 03:09:17;;;;;;;2.43;2.27;;;20.30;74.10;;;21.06;nan;99986.50;4973313;28;20622;-65
2022/06/22 03:11:48;;;;;;;2.50;2.10;;;20.40;74.10;;;21.04;nan;99987.75;4989339;28;20714;-66
2022/06/22 03:14:22;;;;;;;2.60;2.50;;;20.30;74.40;;;20.92;nan;99987.41;4973143;28;20917;-65
2022/06/22 03:16:59;;;;;;;2.30;2.20;;;20.20;74.80;;;20.90;nan;99994.72;4973738;28;21041;-65
2022/06/22 03:19:50;;;;;;;2.43;2.33;;;20.30;74.80;;;20.88;nan;100008.19;4972199;28;20618;-66
2022/06/22 03:22:26;;;;;;;2.47;2.27;;;20.20;74.80;;;20.94;nan;100013.72;4971435;28;21035;-66
2022/06/22 03:25:16;;;;;;;2.73;2.63;;;20.20;74.80;;;20.97;nan;100016.00;4972215;28;21245;-65
2022/06/22 03:27:54;;;;;;;2.47;2.37;;;20.20;74.70;;;20.93;nan;100017.41;4972869;28;21218;-65
2022/06/22 03:30:28;;;;;;;2.50;2.30;;;20.30;74.70;;;20.78;nan;100010.31;4972383;28;20646;-66
2022/06/22 03:33:03;;;;;;;2.17;2.07;;;20.10;75.10;;;20.78;nan;100014.84;4987468;28;20646;-65
2022/06/22 03:35:49;;;;;;;2.80;2.60;;;20.10;75.70;;;20.77;nan;100014.00;4973573;28;20670;-65
2022/06/22 03:38:25;;;;;;;2.53;2.30;;;20.10;75.90;;;20.75;nan;100018.69;4971949;28;21192;-65
2022/06/22 03:41:02;;;;;;;2.83;2.63;;;20.00;76.20;;;20.74;nan;100019.69;4973299;28;20662;-65
2022/06/22 03:43:38;;;;;;;2.90;2.70;;;20.00;76.40;;;20.73;nan;100011.91;4971501;28;20641;-65
2022/06/22 03:46:17;;;;;;;3.63;2.57;;;20.10;76.60;;;20.74;nan;100014.38;4969981;28;20634;-65
2022/06/22 03:49:06;;;;;;;2.57;2.47;;;20.10;76.90;;;20.77;nan;100015.81;4971866;28;20696;-66
2022/06/22 03:51:50;;;;;;;2.20;2.10;;;20.10;77.00;;;20.89;nan;100016.97;4972681;28;20666;-65
2022/06/22 03:54:35;;;;;;;2.23;2.13;;;20.20;76.90;;;20.96;nan;100022.31;4972250;28;21032;-65
2022/06/22 03:57:08;;;;;;;2.20;2.10;;;20.20;76.70;;;20.92;nan;100021.88;4972169;28;20627;-66
2022/06/22 03:59:41;;;;;;;6.00;2.77;;;20.20;77.20;;;20.92;nan;100023.69;4974008;28;20976;-65
2022/06/22 04:02:09;;;;;;;2.43;2.33;;;20.20;76.80;;;20.95;nan;100028.63;4973064;28;20999;-66
2022/06/22 04:04:36;;;;;;;3.37;2.50;;;20.30;76.90;;;20.97;nan;100035.41;4971746;28;21198;-65
2022/06/22 04:07:04;;;;;;;2.13;2.00;;;20.30;76.60;;;21.06;nan;100036.91;4970375;28;20645;-65
2022/06/22 04:09:31;;;;;;;2.40;2.20;;;20.30;76.70;;;21.11;nan;100031.84;4964179;28;20643;-66
2022/06/22 04:12:21;;;;;;;2.20;2.10;;;20.40;76.60;;;21.14;nan;100039.44;4970204;28;20651;-65
2022/06/22 04:14:56;;;;;;;2.73;2.37;;;20.50;76.80;;;21.18;nan;100040.69;4970997;28;21230;-65
2022/06/22 04:17:40;;;;;;;2.20;2.10;;;20.50;76.90;;;21.24;nan;100041.75;4972267;28;20639;-65
2022/06/22 04:20:25;;;;;;;2.40;2.30;;;20.50;76.50;;;21.25;nan;100036.25;4968641;28;20658;-65
2022/06/22 04:22:55;;;;;;;2.10;2.00;;;20.60;76.70;;;21.29;nan;100034.03;4965336;28;20631;-65
2022/06/22 04:25:36;;;;;;;2.00;1.73;;;20.60;76.60;;;21.39;nan;100040.66;4973030;28;20623;-65
2022/06/22 04:28:08;;;;;;;5.53;2.30;;;20.80;76.30;;;21.46;nan;100052.13;4968134;28;20639;-65
2022/06/22 04:30:46;;;;;;;5.17;2.10;;;20.80;76.20;;;21.54;nan;100046.66;4952174;29;20660;-65
2022/06/22 04:33:59;;;;;;;5.37;2.40;;;20.90;76.00;;;21.59;nan;100041.56;4965175;28;20643;-65
2022/06/22 04:36:47;;;;;;;2.60;2.40;;;20.90;75.90;;;21.62;nan;100046.50;4970096;28;20647;-65
2022/06/22 04:39:35;;;;;;;2.00;1.90;;;21.00;75.50;;;21.66;nan;100048.78;4971750;28;20634;-65
2022/06/22 04:42:04;;;;;;;2.33;2.23;;;21.00;75.60;;;21.66;nan;100041.63;4971414;28;20638;-65
2022/06/22 04:44:36;;;;;;;2.20;2.10;;;21.00;75.60;;;21.67;nan;100042.44;4970419;28;21206;-65
2022/06/22 04:47:31;;;;;;;2.90;2.30;;;21.00;75.60;;;21.59;nan;100046.88;4969249;28;20644;-65
2022/06/22 04:52:43;;;;;;;2.93;2.60;;;20.90;75.60;;;21.51;nan;100065.63;4950602;28;21018;-65
2022/06/22 04:55:16;;;;;;;2.50;2.30;;;20.90;76.20;;;21.47;nan;100060.91;4920491;29;20698;-65
2022/06/22 04:57:47;;;;;;;2.27;2.17;;;20.80;76.40;;;21.40;nan;100055.53;4952281;29;20623;-65
2022/06/22 05:00:26;;;;;;;2.33;2.23;;;20.70;76.90;;;21.48;nan;100060.72;4936758;28;21174;-65
2022/06/22 05:03:06;;;;;;;3.00;2.40;;;20.80;76.80;;;21.49;nan;100062.34;4953860;28;20936;-65
2022/06/22 05:05:35;;;;;;;2.03;1.93;;;20.80;76.60;;;21.54;nan;100070.56;4954142;28;20639;-65
2022/06/22 05:08:24;;;;;;;2.43;1.90;;;20.90;76.30;;;21.63;nan;100092.47;4971665;28;20636;-65
2022/06/22 05:11:12;;;;;;;2.10;2.00;;;21.00;76.40;;;21.77;nan;100103.97;4965435;28;20672;-64
2022/06/22 05:13:46;;;;;;;1.50;1.40;;;21.10;75.90;;;21.88;nan;100103.47;4966562;28;20640;-64
2022/06/22 05:16:18;;;;;;;2.47;1.97;;;21.20;75.70;;;22.03;nan;100097.03;4952587;28;20666;-65
2022/06/22 05:18:47;;;;;;;2.40;2.20;;;21.30;75.30;;;22.06;nan;100095.81;4953018;28;20713;-64
2022/06/22 05:21:32;;;;;;;2.63;2.37;;;21.50;75.20;;;22.22;nan;100106.09;4953189;28;20670;-65
2022/06/22 05:24:07;;;;;;;2.43;2.27;;;21.60;74.90;;;22.35;nan;100099.00;4970871;28;20615;-65
2022/06/22 05:26:35;;;;;;;2.10;1.90;;;21.70;74.50;;;22.47;nan;100104.56;4970825;28;20635;-65
2022/06/22 05:29:09;;;;;;;2.53;2.23;;;21.90;73.70;;;22.58;nan;100106.63;4954259;28;20627;-65
2022/06/22 05:31:43;;;;;;;2.73;1.83;;;22.00;73.60;;;22.67;nan;100102.81;4952700;28;20663;-65
2022/06/22 05:34:20;;;;;;;2.43;2.23;;;22.10;73.00;;;22.70;nan;100109.59;4953493;28;20635;-65
2022/06/22 05:36:57;;;;;;;2.60;2.17;;;22.00;73.20;;;22.74;nan;100106.31;4953358;28;20638;-65
2022/06/22 05:39:24;;;;;;;1.90;1.90;;;22.10;72.90;;;22.85;nan;100108.38;4970349;28;20635;-65
2022/06/22 05:41:53;;;;;;;2.10;2.00;;;22.20;72.60;;;22.99;nan;100110.03;4954566;28;20666;-65
2022/06/22 05:44:22;;;;;;;2.50;2.30;;;22.40;72.30;;;23.07;nan;100096.53;4970799;28;20627;-65
2022/06/22 05:46:54;;;;;;;2.37;2.20;;;22.60;72.20;;;23.20;nan;100108.22;4970533;28;20624;-65
2022/06/22 05:49:28;;;;;;;2.57;2.23;;;22.60;71.70;;;23.10;nan;100100.66;4952628;28;20639;-64
2022/06/22 05:52:13;;;;;;;4.40;2.60;;;22.50;71.80;;;23.12;nan;100099.41;4953815;28;20658;-64
2022/06/22 05:54:53;;;;;;;2.50;2.30;;;22.50;72.00;;;23.22;nan;100106.97;4969689;28;21029;-65
2022/06/22 05:57:43;;;;;;;2.00;1.90;;;22.70;71.70;;;23.49;nan;100113.16;4937491;29;21241;-65
2022/06/22 06:00:20;;;;;;;2.77;2.33;;;22.90;71.30;;;23.81;nan;100120.28;4940524;28;20631;-64
2022/06/22 06:03:08;;;;;;;1.50;1.50;;;23.20;70.80;;;24.16;nan;100108.34;4938756;28;20627;-64
2022/06/22 06:05:46;;;;;;;2.57;2.30;;;23.50;69.60;;;24.57;nan;100105.28;4970062;28;20714;-64
2022/06/22 06:08:28;;;;;;;3.20;2.17;;;24.10;68.10;;;24.95;nan;100113.28;4953178;28;20642;-64
2022/06/22 06:10:56;;;;;;;1.40;1.40;;;24.40;67.30;;;25.35;nan;100110.13;4954109;28;20667;-64
2022/06/22 06:13:43;;;;;;;2.20;2.10;;;24.90;66.00;;;25.73;nan;100115.34;4970610;28;21385;-64
2022/06/22 06:16:26;;;;;;;2.73;2.00;;;25.30;65.20;;;25.97;nan;100114.50;4952225;28;21054;-64
2022/06/22 06:19:06;;;;;;;2.50;2.10;;;25.50;64.30;;;26.41;nan;100115.22;4952354;28;20681;-65
2022/06/22 06:21:37;;;;;;;2.30;2.10;;;25.90;63.70;;;27.01;nan;100108.84;4970000;28;20651;-65
2022/06/22 06:24:18;;;;;;;2.10;2.00;;;26.50;62.60;;;27.64;nan;100109.88;4952681;28;20645;-65
2022/06/22 06:30:41;;;;;;;2.40;2.00;;;28.00;60.10;;;29.63;nan;100122.31;4971193;28;20643;-65
2022/06/22 06:33:31;;;;;;;3.40;2.13;;;29.10;58.40;;;30.13;nan;100123.06;4959927;28;20650;-63
2022/06/22 06:36:13;;;;;;;2.13;2.03;;;29.90;56.00;;;30.73;nan;100124.84;4933181;29;20672;-64
2022/06/22 06:38:54;;;;;;;2.23;2.13;;;30.30;55.40;;;31.62;nan;100124.06;4949481;29;20631;-64
2022/06/22 06:41:41;;;;;;;2.33;2.20;;;31.10;54.20;;;32.25;nan;100120.38;4937684;28;20654;-64
2022/06/22 06:44:16;;;;;;;2.00;1.90;;;31.80;53.10;;;32.84;nan;100120.81;4972334;28;20757;-65
2022/06/22 06:46:51;;;;;;;2.13;1.90;;;32.30;52.30;;;33.20;nan;100111.69;4956363;28;20638;-64
2022/06/22 06:49:36;;;;;;;2.23;2.00;;;32.80;51.30;;;33.75;nan;100110.03;4956437;28;20986;-64
2022/06/22 06:52:28;;;;;;;2.57;2.33;;;33.10;50.70;;;34.55;nan;100108.94;4947899;28;20667;-65
2022/06/22 06:55:14;;;;;;;2.10;2.00;;;34.00;49.40;;;35.18;nan;100107.16;4949831;28;21010;-64
2022/06/22 06:58:30;;;;;;;3.77;2.00;;;34.50;48.40;;;35.45;nan;100110.16;4962340;28;20640;-64
2022/06/22 07:00:57;;;;;;;2.27;2.00;;;34.80;47.30;;;35.33;nan;100113.25;4987015;28;20654;-64
2022/06/22 07:03:29;;;;;;;2.30;2.20;;;34.80;47.10;;;35.20;nan;100104.97;4954959;28;20641;-64
2022/06/22 07:05:56;;;;;;;6.10;2.33;;;34.50;47.00;;;34.70;nan;100108.84;4970689;28;20670;-64
2022/06/22 07:08:44;;;;;;;2.10;2.00;;;34.20;47.60;;;35.27;nan;100114.41;4954198;29;20628;-64
2022/06/22 07:11:51;;;;;;;3.33;2.30;;;34.40;47.40;;;36.21;nan;100119.16;4954947;29;20652;-64
2022/06/22 07:14:28;;;;;;;2.63;2.53;;;35.40;46.30;;;36.47;nan;100125.91;4968335;28;20638;-64
2022/06/22 07:17:11;;;;;;;4.17;3.10;;;35.70;45.70;;;37.07;nan;100126.13;4956707;28;20627;-64
2022/06/22 07:19:48;;;;;;;3.17;2.40;;;36.30;45.30;;;38.41;nan;100123.91;4956063;28;20700;-65
2022/06/22 07:22:32;;;;;;;2.50;2.30;;;37.50;44.00;;;39.92;nan;100133.00;4972511;28;20672;-64
2022/06/22 07:25:30;;;;;;;2.17;2.07;;;39.20;42.70;;;39.49;nan;100138.25;4955050;28;20627;-65
2022/06/22 07:28:24;;;;;;;2.67;2.47;;;38.90;42.30;;;37.08;nan;100138.59;4938145;29;20623;-64
2022/06/22 07:31:08;;;;;;;2.80;2.00;;;36.70;43.40;;;34.74;nan;100132.41;4956154;28;20662;-65
2022/06/22 07:33:57;;;;;;;3.17;3.00;;;34.20;45.50;;;33.32;nan;100127.66;4953480;28;20974;-64
2022/06/22 07:36:35;;;;;;;4.93;2.30;;;32.60;48.00;;;33.24;nan;100122.78;4949421;28;21066;-65
2022/06/22 07:39:14;;;;;;;2.03;1.93;;;32.40;48.80;;;32.90;nan;100123.25;4971506;28;20662;-65
2022/06/22 07:41:42;;;;;;;2.50;2.30;;;32.20;49.10;;;32.28;nan;100124.44;4951202;28;20659;-64
2022/06/22 07:44:21;;;;;;;2.60;2.40;;;31.50;49.90;;;31.78;nan;100114.97;4972441;28;20631;-65
2022/06/22 07:47:12;;;;;;;2.67;2.47;;;31.00;50.60;;;31.39;nan;100100.16;4953733;28;20634;-63
2022/06/22 07:49:53;;;;;;;2.60;2.50;;;30.60;51.30;;;30.97;nan;100096.56;4971703;28;20634;-63
2022/06/22 07:52:28;;;;;;;2.80;2.60;;;30.20;51.80;;;30.80;nan;100098.50;4960029;28;20696;-63
2022/06/22 07:55:31;;;;;;;2.80;2.60;;;30.00;52.10;;;30.81;nan;100114.44;4939029;28;20632;-63
2022/06/22 07:58:27;;;;;;;2.57;2.30;;;30.00;52.30;;;31.28;nan;100118.09;4954448;28;20638;-63
2022/06/22 08:01:09;;;;;;;3.03;2.80;;;30.30;52.10;;;33.10;nan;100122.50;4954690;28;20667;-62
2022/06/22 08:04:02;;;;;;;2.93;2.53;;;32.30;50.20;;;33.41;nan;100124.13;4970843;28;20620;-64
2022/06/22 08:06:55;;;;;;;2.77;2.60;;;32.70;49.30;;;32.85;nan;100125.16;4941347;28;20627;-64
2022/06/22 08:09:33;;;;;;;2.20;2.10;;;32.20;49.80;;;32.09;nan;100119.47;4942523;28;20658;-64
2022/06/22 08:12:16;;;;;;;2.83;2.63;;;31.40;50.10;;;31.22;nan;100104.88;4950393;28;20680;-63
2022/06/22 08:14:52;;;;;;;2.83;2.63;;;30.50;51.10;;;30.63;nan;100106.69;4941528;28;21047;-64
2022/06/22 08:17:31;;;;;;;2.20;2.10;;;29.80;51.80;;;30.06;nan;100106.28;4935719;28;20631;-65
2022/06/22 08:19:58;;;;;;;2.60;2.40;;;29.20;52.70;;;29.67;nan;100104.63;4964607;28;21191;-62
2022/06/22 08:22:25;;;;;;;3.17;2.97;;;28.80;53.50;;;29.41;nan;100099.97;4966000;28;20620;-61
2022/06/22 08:24:55;;;;;;;5.80;4.73;;;28.50;54.10;;;29.27;nan;100104.00;4968851;28;20646;-63
2022/06/22 08:27:25;;;;;;;2.77;2.60;;;28.40;54.60;;;28.94;nan;100108.28;4965314;28;20616;-66
2022/06/22 08:29:53;;;;;;;6.47;3.30;;;28.30;55.40;;;28.64;nan;100113.13;4934268;28;21198;-64
2022/06/22 08:32:31;;;;;;;3.50;2.70;;;27.80;55.30;;;28.77;nan;100107.44;4949705;29;20688;-68
2022/06/22 08:35:11;;;;;;;5.90;2.60;;;27.90;55.20;;;29.08;nan;100106.09;4929827;28;20639;-67
2022/06/22 08:37:43;;;;;;;3.20;2.70;;;28.20;55.00;;;29.31;nan;100097.09;4954582;28;21209;-64
2022/06/22 08:40:21;;;;;;;3.30;2.73;;;28.50;54.60;;;29.39;nan;100096.69;4955091;28;20642;-64
2022/06/22 08:43:14;;;;;;;2.50;2.40;;;28.60;54.20;;;29.27;nan;100087.88;4973067;28;20615;-64
2022/06/22 08:46:08;;;;;;;7.57;2.60;;;28.50;53.70;;;29.22;nan;100088.63;4969493;28;20639;-65
2022/06/22 08:49:04;;;;;;;3.33;2.57;;;28.50;53.80;;;29.10;nan;100080.63;4964061;28;21116;-64
2022/06/22 08:52:08;;;;;;;5.13;2.37;;;28.30;54.40;;;28.91;nan;100065.81;4964726;28;20667;-65
2022/06/22 08:55:04;;;;;;;2.67;2.50;;;28.20;53.80;;;28.63;nan;100078.44;4961627;28;20647;-66
2022/06/22 08:57:48;;;;;;;2.97;2.77;;;27.80;54.20;;;27.92;nan;100073.50;4970575;28;20628;-64
2022/06/22 09:00:50;;;;;;;3.20;2.60;;;27.10;55.30;;;27.80;nan;100078.06;4968632;28;21045;-66
2022/06/22 09:04:01;;;;;;;2.70;2.50;;;27.00;55.70;;;27.67;nan;100087.97;4971461;28;20654;-67
2022/06/22 09:07:03;;;;;;;2.87;2.60;;;26.80;55.90;;;27.65;nan;100079.34;4960102;28;20636;-64
2022/06/22 09:10:03;;;;;;;5.07;2.80;;;26.80;56.00;;;27.54;nan;100074.00;4941750;29;20632;-64
2022/06/22 09:12:45;;;;;;;3.83;3.27;;;26.70;56.30;;;27.41;nan;100079.56;4936686;29;20628;-64
2022/06/22 09:15:33;;;;;;;4.23;3.67;;;26.60;56.90;;;27.29;nan;100092.94;4971161;28;20651;-64
2022/06/22 09:18:29;;;;;;;4.47;2.53;;;26.50;57.80;;;27.13;nan;100085.56;4954593;28;20623;-64
2022/06/22 09:21:38;;;;;;;2.63;2.47;;;26.30;58.40;;;26.95;nan;100085.69;4943437;29;20664;-65
2022/06/22 09:24:32;;;;;;;7.03;2.90;;;26.10;58.80;;;26.71;nan;100083.94;4951950;28;20632;-64
2022/06/22 09:27:39;;;;;;;2.60;2.40;;;25.90;59.90;;;26.71;nan;100073.22;4970600;28;20643;-65
2022/06/22 09:30:46;;;;;;;4.33;2.77;;;25.90;60.20;;;26.72;nan;100074.88;4926908;29;20643;-66
2022/06/22 09:33:36;;;;;;;2.37;2.20;;;25.90;60.00;;;26.70;nan;100074.28;4956419;28;20635;-67
2022/06/22 09:36:45;;;;;;;4.67;2.20;;;25.90;59.30;;;26.74;nan;100080.84;4946023;28;20679;-64
2022/06/22 09:39:36;;;;;;;2.60;2.00;;;25.90;59.00;;;26.77;nan;100080.38;4969918;28;20635;-65
2022/06/22 09:42:54;;;;;;;3.00;2.70;;;26.00;59.10;;;26.77;nan;100085.72;4971596;28;21098;-65
2022/06/22 09:46:08;;;;;;;2.27;2.13;;;26.00;59.10;;;26.84;nan;100091.81;4971309;28;20652;-65
2022/06/22 09:48:50;;;;;;;3.57;2.17;;;26.00;59.10;;;26.91;nan;100092.53;4938964;28;20734;-66
2022/06/22 09:51:31;;;;;;;2.60;2.50;;;26.10;59.10;;;26.96;nan;100103.34;4970837;28;20671;-64
2022/06/22 09:58:04;;;;;;;3.53;2.87;;;26.20;59.20;;;;;;4971244;28;20631;-66
2022/06/22 10:00:39;;;;;;;3.80;2.57;;;26.20;59.40;;;;;;4970879;28;20675;-64
2022/06/22 10:03:39;;;;;;;2.43;2.33;;;26.30;59.70;;;;;;4970733;28;20614;-65
2022/06/22 10:06:16;;;;;;;7.20;2.20;;;26.10;59.50;;;;;;4967637;28;20628;-66
2022/06/22 10:09:04;;;;;;;3.37;2.50;;;26.20;59.40;;;;;;4969902;28;20690;-65
2022/06/22 10:11:47;;;;;;;2.93;2.73;;;26.40;59.50;;;;;;4960028;28;20676;-64
2022/06/22 10:14:58;;;;;;;3.53;2.40;;;26.50;59.80;;;;;;4951829;29;21211;-67
2022/06/22 10:17:40;;;;;;;5.23;2.70;;;26.60;59.30;;;;;;4907654;29;20669;-64
2022/06/22 10:20:42;;;;;;;7.50;2.60;;;26.20;59.60;;;;;;4913316;29;21028;-66
2022/06/22 10:23:09;;;;;;;4.90;2.80;;;26.30;59.30;;;;;;4963853;28;20714;-67
2022/06/22 10:25:45;;;;;;;2.63;2.40;;;26.20;59.40;;;;;;4973442;28;20647;-65
2022/06/22 10:28:39;;;;;;;6.60;2.30;;;26.30;58.90;;;;;;4973872;28;20706;-67
2022/06/22 10:31:23;;;;;;;3.27;2.53;;;26.40;58.50;;;;;;4963293;28;20659;-66
2022/06/22 10:33:59;;;;;;;7.37;2.50;;;26.40;57.60;;;;;;4970567;28;20642;-66
2022/06/22 10:37:03;;;;;;;2.60;2.40;;;26.50;57.80;;;;;;4956302;28;21098;-66
2022/06/22 10:39:59;;;;;;;2.97;2.60;;;26.70;57.90;;;;;;4967747;28;20642;-67
2022/06/22 10:45:59;;;;;;;5.47;2.63;;;26.90;56.60;;;;;;4948700;28;20742;-66
2022/06/22 10:48:47;;;;;;;5.13;2.40;;;26.70;57.10;;;;;;4972735;28;20623;-68
2022/06/22 10:51:36;;;;;;;14.30;2.40;;;26.80;57.00;;;;;;4973101;28;21282;-66
2022/06/22 10:54:21;;;;;;;2.50;2.30;;;26.90;56.80;;;;;;4971105;28;20646;-65
2022/06/22 10:56:48;;;;;;;2.97;2.77;;;26.90;56.50;;;;;;4974620;28;20694;-66
2022/06/22 10:59:27;;;;;;;2.87;2.70;;;26.90;56.80;;;;;;4974689;28;20619;-66
2022/06/22 11:02:52;;;;;;;2.83;2.63;;;26.80;56.70;;;;;;4970727;28;20654;-65
2022/06/22 11:06:05;;;;;;;3.20;2.77;;;26.90;57.10;;;;;;4964653;28;20658;-65
2022/06/22 11:09:07;;;;;;;3.07;2.83;;;26.90;57.40;;;;;;4924582;28;20619;-64
2022/06/22 11:11:58;;;;;;;6.50;5.70;;;26.90;57.10;;;;;;4973325;28;20765;-64
2022/06/22 11:14:28;;;;;;;4.63;4.23;;;26.90;57.10;;;;;;4974433;28;20730;-66
2022/06/22 11:17:21;;;;;;;8.10;2.73;;;26.90;57.50;;;;;;4972019;28;21503;-66
2022/06/22 11:20:06;;;;;;;3.23;2.40;;;27.00;57.70;;;;;;4958083;28;21067;-66
2022/06/22 11:22:39;;;;;;;3.17;2.97;;;27.00;57.90;;;;;;4974311;28;20626;-66
2022/06/22 11:31:48;;;;;;;2.47;2.37;;;26.70;63.10;;;;;;4974670;28;20738;-66
2022/06/22 11:34:43;;;;;;;7.17;2.57;;;26.40;62.90;;;;;;4974467;28;20629;-66
2022/06/22 11:37:26;;;;;;;2.63;2.40;;;26.10;63.20;;;;;;4963020;28;20702;-66
2022/06/22 11:40:49;;;;;;;4.67;2.60;;;26.00;63.80;;;;;;4973848;28;20614;-66
2022/06/22 11:43:38;;;;;;;4.00;2.80;;;26.00;64.40;;;;;;4974118;28;20669;-66
2022/06/22 11:46:34;;;;;;;2.70;2.50;;;26.00;63.60;;;;;;4974424;28;20834;-66
2022/06/22 11:49:37;;;;;;;2.40;2.20;;;26.00;63.80;;;;;;4962199;28;21250;-66
2022/06/22 11:52:28;;;;;;;2.70;2.60;;;26.20;63.20;;;;;;4974055;28;20745;-67
2022/06/22 11:55:14;;;;;;;2.43;2.30;;;26.40;62.80;;;;;;4968786;28;20654;-66
2022/06/22 11:58:11;;;;;;;3.10;2.80;;;26.40;62.20;;;;;;4973963;28;20662;-65
2022/06/22 12:00:48;;;;;;;4.80;2.70;;;26.50;62.20;;;;;;4973538;28;20758;-65
2022/06/22 12:03:32;;;;;;;3.40;2.77;;;26.30;62.30;;;;;;4956845;28;20735;-66
2022/06/22 12:06:11;;;;;;;4.20;2.77;;;26.30;62.00;;;;;;4973846;28;20993;-66
2022/06/22 12:09:15;;;;;;;3.10;2.90;;;26.30;61.70;;;;;;4973595;28;21269;-67
2022/06/22 12:12:09;;;;;;;12.73;2.80;;;26.60;61.60;;;;;;4973953;28;20741;-65
2022/06/22 12:15:17;;;;;;;9.33;3.10;;;26.80;61.40;;;;;;4961632;28;21242;-66
2022/06/22 12:18:05;;;;;;;3.37;2.70;;;26.60;62.00;;;;;;4972853;28;20673;-66
2022/06/22 12:20:41;;;;;;;4.00;2.90;;;26.50;62.60;;;;;;4964802;28;21035;-72
2022/06/22 12:23:19;;;;;;;7.53;3.93;;;26.50;61.30;;;;;;4970043;28;21162;-65
2022/06/22 12:26:31;;;;;;;4.17;3.20;;;26.10;61.10;;;;;;4972507;28;20710;-67